sensor_id;sensor_type;location;lat;lon;timestamp;pressure;altitude;pressure_sealevel;temperature;humidity
63111;BME280;49201;53.426;10.300;2023-02-01T00:02:05;101157.69;;;4.74;100.00
63111;BME280;49201;53.426;10.300;2023-02-01T00:04:30;101144.94;;;4.73;100.00
63111;BME280;49201;53.426;10.300;2023-02-01T00:06:56;101145.09;;;4.76;100.00
63111;BME280;49201;53.426;10.300;2023-02-01T00:09:21;101151.81;;;4.75;100.00
63111;BME280;49201;53.426;10.300;2023-02-01T00:11:47;101138.13;;;4.72;100.00
63111;BME280;49201;53.426;10.300;2023-02-01T00:14:13;101137.47;;;4.76;100.00
63111;BME280;49201;53.426;10.300;2023-02-01T00:16:38;101126.75;;;4.81;100.00
63111;BME280;49201;53.426;10.300;2023-02-01T00:19:11;101120.06;;;4.83;100.00
63111;BME280;49201;53.426;10.300;2023-02-01T00:21:37;101129.41;;;4.84;100.00
63111;BME280;49201;53.426;10.300;2023-02-01T00:24:03;101125.38;;;4.88;100.00
63111;BME280;49201;53.426;10.300;2023-02-01T00:29:04;101121.97;;;4.87;100.00
63111;BME280;49201;53.426;10.300;2023-02-01T00:31:30;101116.16;;;4.90;100.00
63111;BME280;49201;53.426;10.300;2023-02-01T00:33:56;101118.69;;;4.90;100.00
63111;BME280;49201;53.426;10.300;2023-02-01T00:36:22;101120.00;;;4.99;100.00
63111;BME280;49201;53.426;10.300;2023-02-01T00:38:47;101116.06;;;5.06;100.00
63111;BME280;49201;53.426;10.300;2023-02-01T00:41:14;101118.88;;;5.12;100.00
63111;BME280;49201;53.426;10.300;2023-02-01T00:43:40;101104.56;;;5.14;100.00
63111;BME280;49201;53.426;10.300;2023-02-01T00:46:07;101121.69;;;5.18;100.00
63111;BME280;49201;53.426;10.300;2023-02-01T00:48:32;101114.16;;;5.19;100.00
63111;BME280;49201;53.426;10.300;2023-02-01T00:51:03;101123.06;;;5.29;100.00
63111;BME280;49201;53.426;10.300;2023-02-01T00:53:29;101112.09;;;5.30;100.00
63111;BME280;49201;53.426;10.300;2023-02-01T00:55:55;101116.34;;;5.31;100.00
63111;BME280;49201;53.426;10.300;2023-02-01T00:58:22;101108.81;;;5.32;100.00
63111;BME280;49201;53.426;10.300;2023-02-01T01:03:40;101115.03;;;5.39;100.00
63111;BME280;49201;53.426;10.300;2023-02-01T01:06:12;101112.50;;;5.39;100.00
63111;BME280;49201;53.426;10.300;2023-02-01T01:08:39;101113.50;;;5.42;100.00
63111;BME280;49201;53.426;10.300;2023-02-01T01:11:13;101100.94;;;5.45;100.00
63111;BME280;49201;53.426;10.300;2023-02-01T01:13:40;101103.53;;;5.47;100.00
63111;BME280;49201;53.426;10.300;2023-02-01T01:16:07;101102.09;;;5.52;100.00
63111;BME280;49201;53.426;10.300;2023-02-01T01:18:34;101097.78;;;5.51;100.00
63111;BME280;49201;53.426;10.300;2023-02-01T01:21:00;101098.50;;;5.48;100.00
63111;BME280;49201;53.426;10.300;2023-02-01T01:23:26;101099.53;;;5.52;100.00
63111;BME280;49201;53.426;10.300;2023-02-01T01:25:52;101106.41;;;5.54;100.00
63111;BME280;49201;53.426;10.300;2023-02-01T01:28:18;101098.97;;;5.59;100.00
63111;BME280;49201;53.426;10.300;2023-02-01T01:30:44;101094.06;;;5.62;100.00
63111;BME280;49201;53.426;10.300;2023-02-01T01:33:09;101096.69;;;5.65;100.00
63111;BME280;49201;53.426;10.300;2023-02-01T01:35:34;101092.44;;;5.64;100.00
63111;BME280;49201;53.426;10.300;2023-02-01T01:38:00;101085.69;;;5.64;100.00
63111;BME280;49201;53.426;10.300;2023-02-01T01:40:27;101081.47;;;5.65;100.00
63111;BME280;49201;53.426;10.300;2023-02-01T01:42:53;101076.44;;;5.66;100.00
63111;BME280;49201;53.426;10.300;2023-02-01T01:47:52;101076.53;;;5.68;100.00
63111;BME280;49201;53.426;10.300;2023-02-01T01:50:25;101073.97;;;5.68;100.00
63111;BME280;49201;53.426;10.300;2023-02-01T01:52:55;101063.97;;;5.71;100.00
63111;BME280;49201;53.426;10.300;2023-02-01T01:55:24;101052.03;;;5.70;100.00
63111;BME280;49201;53.426;10.300;2023-02-01T01:57:58;101056.28;;;5.69;100.00
63111;BME280;49201;53.426;10.300;2023-02-01T02:00:25;101046.91;;;5.68;100.00
63111;BME280;49201;53.426;10.300;2023-02-01T02:02:59;101047.78;;;5.69;100.00
63111;BME280;49201;53.426;10.300;2023-02-01T02:05:26;101050.38;;;5.70;100.00
63111;BME280;49201;53.426;10.300;2023-02-01T02:07:53;101031.72;;;5.70;100.00
63111;BME280;49201;53.426;10.300;2023-02-01T02:10:21;101035.94;;;5.69;100.00
63111;BME280;49201;53.426;10.300;2023-02-01T02:13:07;101038.34;;;5.66;100.00
63111;BME280;49201;53.426;10.300;2023-02-01T02:15:33;101029.88;;;5.66;100.00
63111;BME280;49201;53.426;10.300;2023-02-01T02:18:09;101033.28;;;5.66;100.00
63111;BME280;49201;53.426;10.300;2023-02-01T02:20:57;101028.19;;;5.66;100.00
63111;BME280;49201;53.426;10.300;2023-02-01T02:26:26;101014.66;;;5.66;100.00
63111;BME280;49201;53.426;10.300;2023-02-01T02:31:45;101014.66;;;5.66;100.00
63111;BME280;49201;53.426;10.300;2023-02-01T02:34:28;101015.41;;;5.65;100.00
63111;BME280;49201;53.426;10.300;2023-02-01T02:40:04;101008.53;;;5.62;100.00
63111;BME280;49201;53.426;10.300;2023-02-01T02:48:33;100994.94;;;5.60;100.00
63111;BME280;49201;53.426;10.300;2023-02-01T02:51:07;100983.22;;;5.64;100.00
63111;BME280;49201;53.426;10.300;2023-02-01T02:54:04;100996.59;;;5.60;100.00
63111;BME280;49201;53.426;10.300;2023-02-01T02:56:50;100991.50;;;5.60;100.00
63111;BME280;49201;53.426;10.300;2023-02-01T02:59:38;100984.09;;;5.64;100.00
63111;BME280;49201;53.426;10.300;2023-02-01T03:02:25;101002.72;;;5.65;100.00
63111;BME280;49201;53.426;10.300;2023-02-01T03:05:11;100988.50;;;5.68;100.00
63111;BME280;49201;53.426;10.300;2023-02-01T03:07:54;100990.91;;;5.65;100.00
63111;BME280;49201;53.426;10.300;2023-02-01T03:12:51;100975.34;;;5.58;100.00
63111;BME280;49201;53.426;10.300;2023-02-01T03:15:49;100977.69;;;5.53;100.00
63111;BME280;49201;53.426;10.300;2023-02-01T03:18:15;100970.78;;;5.49;100.00
63111;BME280;49201;53.426;10.300;2023-02-01T03:20:44;100972.38;;;5.47;100.00
63111;BME280;49201;53.426;10.300;2023-02-01T03:23:13;100953.78;;;5.48;100.00
63111;BME280;49201;53.426;10.300;2023-02-01T03:25:41;100963.16;;;5.49;100.00
63111;BME280;49201;53.426;10.300;2023-02-01T03:28:08;100964.97;;;5.52;100.00
63111;BME280;49201;53.426;10.300;2023-02-01T03:30:40;100969.16;;;5.51;100.00
63111;BME280;49201;53.426;10.300;2023-02-01T03:33:11;100968.25;;;5.49;100.00
63111;BME280;49201;53.426;10.300;2023-02-01T03:36:05;100968.78;;;5.42;100.00
63111;BME280;49201;53.426;10.300;2023-02-01T03:46:38;100970.53;;;5.24;100.00
63111;BME280;49201;53.426;10.300;2023-02-01T03:49:09;100966.13;;;5.20;100.00
63111;BME280;49201;53.426;10.300;2023-02-01T03:51:39;100968.75;;;5.22;100.00
63111;BME280;49201;53.426;10.300;2023-02-01T03:54:09;100961.94;;;5.21;100.00
63111;BME280;49201;53.426;10.300;2023-02-01T03:56:38;100954.25;;;5.19;100.00
63111;BME280;49201;53.426;10.300;2023-02-01T03:59:05;100963.53;;;5.19;100.00
63111;BME280;49201;53.426;10.300;2023-02-01T04:01:33;100969.31;;;5.15;100.00
63111;BME280;49201;53.426;10.300;2023-02-01T04:03:59;100964.03;;;4.91;100.00
63111;BME280;49201;53.426;10.300;2023-02-01T04:06:26;100942.47;;;4.82;100.00
63111;BME280;49201;53.426;10.300;2023-02-01T04:08:52;100947.81;;;4.88;100.00
63111;BME280;49201;53.426;10.300;2023-02-01T04:11:18;100930.72;;;4.84;100.00
63111;BME280;49201;53.426;10.300;2023-02-01T04:13:44;100935.88;;;4.85;100.00
63111;BME280;49201;53.426;10.300;2023-02-01T04:16:09;100927.38;;;4.85;100.00
63111;BME280;49201;53.426;10.300;2023-02-01T04:18:35;100924.91;;;4.86;100.00
63111;BME280;49201;53.426;10.300;2023-02-01T04:21:01;100925.84;;;4.88;100.00
63111;BME280;49201;53.426;10.300;2023-02-01T04:23:28;100931.72;;;4.87;100.00
63111;BME280;49201;53.426;10.300;2023-02-01T04:25:53;100918.16;;;4.87;100.00
63111;BME280;49201;53.426;10.300;2023-02-01T04:28:19;100916.50;;;4.87;100.00
63111;BME280;49201;53.426;10.300;2023-02-01T04:30:45;100924.03;;;4.86;100.00
63111;BME280;49201;53.426;10.300;2023-02-01T04:33:11;100918.84;;;4.83;100.00
63111;BME280;49201;53.426;10.300;2023-02-01T04:35:39;100917.97;;;4.82;100.00
63111;BME280;49201;53.426;10.300;2023-02-01T04:38:05;100910.50;;;4.85;100.00
63111;BME280;49201;53.426;10.300;2023-02-01T04:40:30;100916.34;;;4.84;100.00
63111;BME280;49201;53.426;10.300;2023-02-01T04:42:56;100909.56;;;4.83;100.00
63111;BME280;49201;53.426;10.300;2023-02-01T04:45:21;100899.41;;;4.83;100.00
63111;BME280;49201;53.426;10.300;2023-02-01T04:47:46;100891.88;;;4.85;100.00
63111;BME280;49201;53.426;10.300;2023-02-01T04:50:13;100901.28;;;4.87;100.00
63111;BME280;49201;53.426;10.300;2023-02-01T04:52:39;100889.34;;;4.85;100.00
63111;BME280;49201;53.426;10.300;2023-02-01T04:55:05;100892.78;;;4.87;100.00
63111;BME280;49201;53.426;10.300;2023-02-01T04:57:31;100897.00;;;4.86;100.00
63111;BME280;49201;53.426;10.300;2023-02-01T04:59:56;100897.75;;;4.84;100.00
63111;BME280;49201;53.426;10.300;2023-02-01T05:02:22;100890.16;;;4.84;100.00
63111;BME280;49201;53.426;10.300;2023-02-01T05:04:47;100885.06;;;4.84;100.00
63111;BME280;49201;53.426;10.300;2023-02-01T05:07:13;100883.28;;;4.81;100.00
63111;BME280;49201;53.426;10.300;2023-02-01T05:09:38;100896.81;;;4.82;100.00
63111;BME280;49201;53.426;10.300;2023-02-01T05:12:04;100898.50;;;4.81;100.00
63111;BME280;49201;53.426;10.300;2023-02-01T05:14:48;100898.28;;;4.77;100.00
63111;BME280;49201;53.426;10.300;2023-02-01T05:17:14;100900.63;;;4.72;100.00
63111;BME280;49201;53.426;10.300;2023-02-01T05:19:39;100902.09;;;4.67;100.00
63111;BME280;49201;53.426;10.300;2023-02-01T05:22:05;100901.97;;;4.64;100.00
63111;BME280;49201;53.426;10.300;2023-02-01T05:24:30;100892.56;;;4.43;100.00
63111;BME280;49201;53.426;10.300;2023-02-01T05:26:56;100914.06;;;4.33;100.00
63111;BME280;49201;53.426;10.300;2023-02-01T05:29:21;100919.03;;;4.13;100.00
63111;BME280;49201;53.426;10.300;2023-02-01T05:31:47;100930.34;;;4.02;100.00
63111;BME280;49201;53.426;10.300;2023-02-01T05:34:14;100922.25;;;3.91;100.00
63111;BME280;49201;53.426;10.300;2023-02-01T05:36:39;100926.41;;;3.72;100.00
63111;BME280;49201;53.426;10.300;2023-02-01T05:39:05;100910.47;;;3.57;100.00
63111;BME280;49201;53.426;10.300;2023-02-01T05:41:30;100902.50;;;3.49;100.00
63111;BME280;49201;53.426;10.300;2023-02-01T05:43:56;100892.19;;;3.45;100.00
63111;BME280;49201;53.426;10.300;2023-02-01T05:46:21;100883.41;;;3.38;100.00
63111;BME280;49201;53.426;10.300;2023-02-01T05:48:47;100875.50;;;3.32;100.00
63111;BME280;49201;53.426;10.300;2023-02-01T05:51:12;100877.69;;;3.25;100.00
63111;BME280;49201;53.426;10.300;2023-02-01T05:53:38;100878.63;;;3.27;100.00
63111;BME280;49201;53.426;10.300;2023-02-01T05:56:03;100896.25;;;3.25;100.00
63111;BME280;49201;53.426;10.300;2023-02-01T05:58:29;100902.97;;;3.25;100.00
63111;BME280;49201;53.426;10.300;2023-02-01T06:00:55;100913.53;;;3.16;100.00
63111;BME280;49201;53.426;10.300;2023-02-01T06:03:21;100913.22;;;3.10;100.00
63111;BME280;49201;53.426;10.300;2023-02-01T06:05:47;100930.75;;;3.07;100.00
63111;BME280;49201;53.426;10.300;2023-02-01T06:08:13;100924.78;;;3.05;100.00
63111;BME280;49201;53.426;10.300;2023-02-01T06:10:39;100929.97;;;3.08;100.00
63111;BME280;49201;53.426;10.300;2023-02-01T06:13:04;100925.72;;;3.07;100.00
63111;BME280;49201;53.426;10.300;2023-02-01T06:15:30;100919.06;;;3.09;100.00
63111;BME280;49201;53.426;10.300;2023-02-01T06:17:56;100916.59;;;3.11;100.00
63111;BME280;49201;53.426;10.300;2023-02-01T06:20:22;100911.63;;;3.12;100.00
63111;BME280;49201;53.426;10.300;2023-02-01T06:22:47;100909.25;;;3.15;100.00
63111;BME280;49201;53.426;10.300;2023-02-01T06:25:13;100909.25;;;3.15;100.00
63111;BME280;49201;53.426;10.300;2023-02-01T06:27:38;100902.59;;;3.17;100.00
63111;BME280;49201;53.426;10.300;2023-02-01T06:30:05;100906.16;;;3.21;100.00
63111;BME280;49201;53.426;10.300;2023-02-01T06:32:31;100909.56;;;3.21;100.00
63111;BME280;49201;53.426;10.300;2023-02-01T06:34:56;100906.22;;;3.22;100.00
63111;BME280;49201;53.426;10.300;2023-02-01T06:37:22;100902.03;;;3.23;100.00
63111;BME280;49201;53.426;10.300;2023-02-01T06:39:50;100896.34;;;3.27;100.00
63111;BME280;49201;53.426;10.300;2023-02-01T06:42:15;100901.69;;;3.33;100.00
63111;BME280;49201;53.426;10.300;2023-02-01T06:44:41;100887.31;;;3.32;100.00
63111;BME280;49201;53.426;10.300;2023-02-01T06:47:06;100896.78;;;3.36;100.00
63111;BME280;49201;53.426;10.300;2023-02-01T06:49:32;100901.13;;;3.38;100.00
63111;BME280;49201;53.426;10.300;2023-02-01T06:51:57;100897.25;;;3.45;100.00
63111;BME280;49201;53.426;10.300;2023-02-01T06:54:26;100909.16;;;3.47;100.00
63111;BME280;49201;53.426;10.300;2023-02-01T06:56:51;100921.22;;;3.53;100.00
63111;BME280;49201;53.426;10.300;2023-02-01T06:59:17;100902.88;;;3.57;100.00
63111;BME280;49201;53.426;10.300;2023-02-01T07:01:42;100908.25;;;3.63;100.00
63111;BME280;49201;53.426;10.300;2023-02-01T07:04:10;100896.66;;;3.68;100.00
63111;BME280;49201;53.426;10.300;2023-02-01T07:06:36;100881.91;;;3.77;100.00
63111;BME280;49201;53.426;10.300;2023-02-01T07:09:01;100887.91;;;3.79;100.00
63111;BME280;49201;53.426;10.300;2023-02-01T07:11:27;100885.63;;;3.85;100.00
63111;BME280;49201;53.426;10.300;2023-02-01T07:13:53;100891.13;;;3.94;100.00
63111;BME280;49201;53.426;10.300;2023-02-01T07:16:19;100898.97;;;3.98;100.00
63111;BME280;49201;53.426;10.300;2023-02-01T07:18:46;100893.28;;;4.04;100.00
63111;BME280;49201;53.426;10.300;2023-02-01T07:21:12;100896.84;;;4.07;100.00
63111;BME280;49201;53.426;10.300;2023-02-01T07:23:38;100889.19;;;4.06;100.00
63111;BME280;49201;53.426;10.300;2023-02-01T07:26:05;100894.50;;;4.12;100.00
63111;BME280;49201;53.426;10.300;2023-02-01T07:28:33;100887.06;;;4.15;100.00
63111;BME280;49201;53.426;10.300;2023-02-01T07:31:16;100883.66;;;4.14;100.00
63111;BME280;49201;53.426;10.300;2023-02-01T07:33:44;100889.75;;;4.18;100.00
63111;BME280;49201;53.426;10.300;2023-02-01T07:36:15;100890.81;;;4.23;100.00
63111;BME280;49201;53.426;10.300;2023-02-01T07:38:41;100883.25;;;4.24;100.00
63111;BME280;49201;53.426;10.300;2023-02-01T07:41:07;100885.78;;;4.24;100.00
63111;BME280;49201;53.426;10.300;2023-02-01T07:43:33;100898.59;;;4.27;100.00
63111;BME280;49201;53.426;10.300;2023-02-01T07:45:59;100895.34;;;4.30;100.00
63111;BME280;49201;53.426;10.300;2023-02-01T07:48:26;100899.91;;;4.37;100.00
63111;BME280;49201;53.426;10.300;2023-02-01T07:53:29;100908.09;;;4.50;100.00
63111;BME280;49201;53.426;10.300;2023-02-01T07:55:55;100897.16;;;4.51;100.00
63111;BME280;49201;53.426;10.300;2023-02-01T07:58:22;100888.88;;;4.55;100.00
63111;BME280;49201;53.426;10.300;2023-02-01T08:00:47;100884.88;;;4.60;100.00
63111;BME280;49201;53.426;10.300;2023-02-01T08:03:32;100881.09;;;4.70;100.00
63111;BME280;49201;53.426;10.300;2023-02-01T08:05:57;100879.75;;;4.78;100.00
63111;BME280;49201;53.426;10.300;2023-02-01T08:08:23;100884.88;;;4.79;100.00
63111;BME280;49201;53.426;10.300;2023-02-01T08:10:48;100883.34;;;4.83;100.00
63111;BME280;49201;53.426;10.300;2023-02-01T08:13:14;100884.59;;;4.92;100.00
63111;BME280;49201;53.426;10.300;2023-02-01T08:15:39;100886.59;;;4.99;100.00
63111;BME280;49201;53.426;10.300;2023-02-01T08:18:05;100888.50;;;5.05;100.00
63111;BME280;49201;53.426;10.300;2023-02-01T08:20:30;100878.69;;;5.12;100.00
63111;BME280;49201;53.426;10.300;2023-02-01T08:22:56;100884.81;;;5.17;100.00
63111;BME280;49201;53.426;10.300;2023-02-01T08:25:22;100883.56;;;5.28;100.00
63111;BME280;49201;53.426;10.300;2023-02-01T08:27:48;100888.22;;;5.38;100.00
63111;BME280;49201;53.426;10.300;2023-02-01T08:30:14;100887.59;;;5.44;100.00
63111;BME280;49201;53.426;10.300;2023-02-01T08:32:40;100890.22;;;5.45;100.00
63111;BME280;49201;53.426;10.300;2023-02-01T08:35:05;100897.38;;;5.55;100.00
63111;BME280;49201;53.426;10.300;2023-02-01T08:37:31;100906.34;;;5.68;100.00
63111;BME280;49201;53.426;10.300;2023-02-01T08:39:57;100906.41;;;5.90;100.00
63111;BME280;49201;53.426;10.300;2023-02-01T08:42:22;100913.84;;;5.85;100.00
63111;BME280;49201;53.426;10.300;2023-02-01T08:45:07;100917.34;;;5.87;100.00
63111;BME280;49201;53.426;10.300;2023-02-01T08:47:34;100903.22;;;6.17;100.00
63111;BME280;49201;53.426;10.300;2023-02-01T08:50:00;100903.50;;;6.25;100.00
63111;BME280;49201;53.426;10.300;2023-02-01T08:52:26;100891.53;;;6.44;100.00
63111;BME280;49201;53.426;10.300;2023-02-01T08:54:51;100889.69;;;6.40;100.00
63111;BME280;49201;53.426;10.300;2023-02-01T08:57:17;100884.94;;;6.49;100.00
63111;BME280;49201;53.426;10.300;2023-02-01T08:59:42;100873.44;;;6.59;100.00
63111;BME280;49201;53.426;10.300;2023-02-01T09:02:14;100892.44;;;6.45;100.00
63111;BME280;49201;53.426;10.300;2023-02-01T09:04:40;100871.91;;;6.64;100.00
63111;BME280;49201;53.426;10.300;2023-02-01T09:07:07;100878.28;;;6.76;100.00
63111;BME280;49201;53.426;10.300;2023-02-01T09:09:32;100874.84;;;6.74;100.00
63111;BME280;49201;53.426;10.300;2023-02-01T09:11:58;100865.25;;;6.67;100.00
63111;BME280;49201;53.426;10.300;2023-02-01T09:14:23;100876.31;;;6.68;100.00
63111;BME280;49201;53.426;10.300;2023-02-01T09:16:49;100883.38;;;8.04;100.00
63111;BME280;49201;53.426;10.300;2023-02-01T09:19:14;100880.25;;;7.86;100.00
63111;BME280;49201;53.426;10.300;2023-02-01T09:21:40;100886.72;;;8.59;100.00
63111;BME280;49201;53.426;10.300;2023-02-01T09:24:05;100887.09;;;7.87;100.00
63111;BME280;49201;53.426;10.300;2023-02-01T09:26:32;100874.22;;;7.05;100.00
63111;BME280;49201;53.426;10.300;2023-02-01T09:28:57;100871.16;;;7.15;100.00
63111;BME280;49201;53.426;10.300;2023-02-01T09:31:23;100870.94;;;8.43;100.00
63111;BME280;49201;53.426;10.300;2023-02-01T09:33:48;100881.00;;;9.67;100.00
63111;BME280;49201;53.426;10.300;2023-02-01T09:36:14;100883.31;;;7.75;100.00
63111;BME280;49201;53.426;10.300;2023-02-01T09:38:39;100889.94;;;7.18;100.00
63111;BME280;49201;53.426;10.300;2023-02-01T09:46:58;100882.53;;;6.52;100.00
63111;BME280;49201;53.426;10.300;2023-02-01T09:49:30;100889.88;;;6.68;100.00
63111;BME280;49201;53.426;10.300;2023-02-01T09:51:57;100912.16;;;6.52;100.00
63111;BME280;49201;53.426;10.300;2023-02-01T09:54:40;100909.56;;;6.50;100.00
63111;BME280;49201;53.426;10.300;2023-02-01T09:57:13;100908.81;;;6.76;100.00
63111;BME280;49201;53.426;10.300;2023-02-01T09:59:43;100899.91;;;7.37;100.00
63111;BME280;49201;53.426;10.300;2023-02-01T10:02:17;100891.91;;;6.78;100.00
63111;BME280;49201;53.426;10.300;2023-02-01T10:04:44;100885.97;;;6.78;100.00
63111;BME280;49201;53.426;10.300;2023-02-01T10:07:25;100892.47;;;7.18;100.00
63111;BME280;49201;53.426;10.300;2023-02-01T10:20:43;100906.19;;;10.23;100.00
63111;BME280;49201;53.426;10.300;2023-02-01T10:26:32;100906.13;;;7.72;100.00
63111;BME280;49201;53.426;10.300;2023-02-01T10:29:01;100895.88;;;7.44;100.00
63111;BME280;49201;53.426;10.300;2023-02-01T10:31:31;100906.66;;;7.88;100.00
63111;BME280;49201;53.426;10.300;2023-02-01T10:34:01;100882.13;;;9.78;100.00
63111;BME280;49201;53.426;10.300;2023-02-01T10:36:35;100911.13;;;8.22;100.00
63111;BME280;49201;53.426;10.300;2023-02-01T10:39:05;100910.22;;;7.67;100.00
63111;BME280;49201;53.426;10.300;2023-02-01T10:41:35;100900.91;;;7.41;100.00
63111;BME280;49201;53.426;10.300;2023-02-01T10:44:04;100904.03;;;7.09;100.00
63111;BME280;49201;53.426;10.300;2023-02-01T10:46:33;100879.03;;;6.97;100.00
63111;BME280;49201;53.426;10.300;2023-02-01T10:49:02;100888.09;;;6.89;100.00
63111;BME280;49201;53.426;10.300;2023-02-01T10:51:43;100884.56;;;6.86;100.00
63111;BME280;49201;53.426;10.300;2023-02-01T10:54:16;100865.78;;;6.82;100.00
63111;BME280;49201;53.426;10.300;2023-02-01T10:56:44;100856.22;;;6.75;100.00
63111;BME280;49201;53.426;10.300;2023-02-01T10:59:16;100862.25;;;6.79;100.00
63111;BME280;49201;53.426;10.300;2023-02-01T11:01:45;100854.25;;;6.68;100.00
63111;BME280;49201;53.426;10.300;2023-02-01T11:04:18;100831.28;;;6.65;100.00
63111;BME280;49201;53.426;10.300;2023-02-01T11:07:04;100824.16;;;6.80;100.00
63111;BME280;49201;53.426;10.300;2023-02-01T11:09:35;100830.63;;;6.96;100.00
63111;BME280;49201;53.426;10.300;2023-02-01T11:12:03;100825.06;;;6.82;100.00
63111;BME280;49201;53.426;10.300;2023-02-01T11:14:39;100822.19;;;6.73;100.00
63111;BME280;49201;53.426;10.300;2023-02-01T11:19:47;100817.03;;;6.47;100.00
63111;BME280;49201;53.426;10.300;2023-02-01T11:22:21;100812.50;;;6.38;100.00
63111;BME280;49201;53.426;10.300;2023-02-01T11:24:46;100806.97;;;6.26;100.00
63111;BME280;49201;53.426;10.300;2023-02-01T11:27:16;100802.25;;;6.13;100.00
63111;BME280;49201;53.426;10.300;2023-02-01T11:29:44;100784.72;;;6.19;100.00
63111;BME280;49201;53.426;10.300;2023-02-01T11:32:13;100797.56;;;6.24;100.00
63111;BME280;49201;53.426;10.300;2023-02-01T11:34:53;100790.25;;;6.33;100.00
63111;BME280;49201;53.426;10.300;2023-02-01T11:37:31;100777.75;;;6.39;100.00
63111;BME280;49201;53.426;10.300;2023-02-01T11:40:22;100771.69;;;6.35;100.00
63111;BME280;49201;53.426;10.300;2023-02-01T11:45:25;100776.09;;;6.39;100.00
63111;BME280;49201;53.426;10.300;2023-02-01T11:47:52;100772.72;;;6.40;100.00
63111;BME280;49201;53.426;10.300;2023-02-01T11:50:51;100782.06;;;6.40;100.00
63111;BME280;49201;53.426;10.300;2023-02-01T11:53:34;100764.00;;;6.34;100.00
63111;BME280;49201;53.426;10.300;2023-02-01T11:59:05;100761.44;;;6.09;100.00
63111;BME280;49201;53.426;10.300;2023-02-01T12:02:00;100758.34;;;5.94;100.00
63111;BME280;49201;53.426;10.300;2023-02-01T12:07:23;100741.06;;;5.84;100.00
63111;BME280;49201;53.426;10.300;2023-02-01T12:13:20;100756.50;;;5.90;100.00
63111;BME280;49201;53.426;10.300;2023-02-01T12:16:02;100741.16;;;5.87;100.00
63111;BME280;49201;53.426;10.300;2023-02-01T12:21:36;100733.59;;;5.88;100.00
63111;BME280;49201;53.426;10.300;2023-02-01T12:27:21;100726.66;;;5.84;100.00
63111;BME280;49201;53.426;10.300;2023-02-01T12:35:38;100734.03;;;5.78;100.00
63111;BME280;49201;53.426;10.300;2023-02-01T12:43:28;100716.13;;;5.52;100.00
63111;BME280;49201;53.426;10.300;2023-02-01T12:46:03;100723.56;;;5.47;100.00
63111;BME280;49201;53.426;10.300;2023-02-01T12:48:38;100736.25;;;5.47;100.00
63111;BME280;49201;53.426;10.300;2023-02-01T12:51:13;100739.19;;;5.36;100.00
63111;BME280;49201;53.426;10.300;2023-02-01T12:53:50;100742.19;;;5.26;100.00
63111;BME280;49201;53.426;10.300;2023-02-01T12:56:25;100750.63;;;5.25;100.00
63111;BME280;49201;53.426;10.300;2023-02-01T12:58:54;100755.25;;;5.14;100.00
63111;BME280;49201;53.426;10.300;2023-02-01T13:01:40;100776.84;;;5.05;100.00
63111;BME280;49201;53.426;10.300;2023-02-01T13:04:24;100769.97;;;5.01;100.00
63111;BME280;49201;53.426;10.300;2023-02-01T13:06:55;100776.44;;;4.94;100.00
63111;BME280;49201;53.426;10.300;2023-02-01T13:09:31;100771.25;;;4.91;100.00
63111;BME280;49201;53.426;10.300;2023-02-01T13:12:07;100773.53;;;4.85;100.00
63111;BME280;49201;53.426;10.300;2023-02-01T13:14:56;100772.72;;;4.86;100.00
63111;BME280;49201;53.426;10.300;2023-02-01T13:17:26;100782.56;;;4.79;100.00
63111;BME280;49201;53.426;10.300;2023-02-01T13:22:46;100761.84;;;4.68;100.00
63111;BME280;49201;53.426;10.300;2023-02-01T13:25:18;100769.38;;;4.67;100.00
63111;BME280;49201;53.426;10.300;2023-02-01T13:27:47;100771.75;;;4.62;100.00
63111;BME280;49201;53.426;10.300;2023-02-01T13:30:18;100760.56;;;4.59;100.00
63111;BME280;49201;53.426;10.300;2023-02-01T13:35:23;100763.22;;;4.41;100.00
63111;BME280;49201;53.426;10.300;2023-02-01T13:40:44;100752.72;;;4.53;100.00
63111;BME280;49201;53.426;10.300;2023-02-01T13:43:12;100751.94;;;4.95;100.00
63111;BME280;49201;53.426;10.300;2023-02-01T13:45:48;100749.19;;;6.71;100.00
63111;BME280;49201;53.426;10.300;2023-02-01T13:48:21;100738.44;;;8.19;100.00
63111;BME280;49201;53.426;10.300;2023-02-01T13:50:54;100742.16;;;8.30;100.00
63111;BME280;49201;53.426;10.300;2023-02-01T13:53:26;100745.34;;;8.53;100.00
63111;BME280;49201;53.426;10.300;2023-02-01T13:56:20;100739.53;;;8.92;100.00
63111;BME280;49201;53.426;10.300;2023-02-01T13:58:48;100750.59;;;8.93;100.00
63111;BME280;49201;53.426;10.300;2023-02-01T14:03:55;100734.44;;;9.29;100.00
63111;BME280;49201;53.426;10.300;2023-02-01T14:11:38;100752.31;;;6.89;100.00
63111;BME280;49201;53.426;10.300;2023-02-01T14:19:24;100755.09;;;6.70;100.00
63111;BME280;49201;53.426;10.300;2023-02-01T14:21:52;100735.56;;;6.69;100.00
63111;BME280;49201;53.426;10.300;2023-02-01T14:24:29;100736.41;;;6.94;100.00
63111;BME280;49201;53.426;10.300;2023-02-01T14:26:57;100715.63;;;8.22;100.00
63111;BME280;49201;53.426;10.300;2023-02-01T14:29:37;100740.63;;;7.20;100.00
63111;BME280;49201;53.426;10.300;2023-02-01T14:44:40;100759.44;;;5.78;100.00
63111;BME280;49201;53.426;10.300;2023-02-01T14:47:38;100762.47;;;5.68;100.00
63111;BME280;49201;53.426;10.300;2023-02-01T14:52:47;100787.38;;;5.56;100.00
63111;BME280;49201;53.426;10.300;2023-02-01T14:55:45;100780.91;;;5.42;100.00
63111;BME280;49201;53.426;10.300;2023-02-01T15:00:49;100814.50;;;5.15;100.00